Terminal Aerodrome Forecast
Issued by NWS Twin Cities, MN

Home | Current Version | Previous Version | Text Only | Print | Product List | Glossary Off
Versions: 1 2 3 4 5 6 7 8 9 10 11 12 13 14 15 16 17 18 19 20 21 22 23 24 25 26 27 28 29 30 31 32

269
FTUS43 KMPX 180246 AAA
TAFMSP
TAF AMD
KMSP 180246Z 1803/1906 26005KT P6SM OVC004
      TEMPO 1803/1807 5SM BR
     FM180700 22004KT P6SM SCT005
     FM180900 21005KT P6SM FEW250
     FM190300 20004KT P6SM SCT045=

USA.gov is the U.S. government's official web portal to all federal, state and local government web resources and services.